sensor_id;sensor_type;location;lat;lon;timestamp;P1;durP1;ratioP1;P2;durP2;ratioP2
21492;SDS011;10908;50.690;4.400;2023-11-21T00:01:17;34.95;;;16.58;;
21492;SDS011;10908;50.690;4.400;2023-11-21T00:03:42;33.35;;;16.27;;
21492;SDS011;10908;50.690;4.400;2023-11-21T00:06:09;34.17;;;16.58;;
21492;SDS011;10908;50.690;4.400;2023-11-21T00:08:35;31.33;;;15.63;;
21492;SDS011;10908;50.690;4.400;2023-11-21T00:11:01;32.33;;;16.00;;
21492;SDS011;10908;50.690;4.400;2023-11-21T00:13:26;27.65;;;14.57;;
21492;SDS011;10908;50.690;4.400;2023-11-21T00:15:52;28.77;;;14.70;;
21492;SDS011;10908;50.690;4.400;2023-11-21T00:18:18;30.35;;;15.05;;
21492;SDS011;10908;50.690;4.400;2023-11-21T00:20:44;31.92;;;15.20;;
21492;SDS011;10908;50.690;4.400;2023-11-21T00:23:10;32.50;;;15.70;;
21492;SDS011;10908;50.690;4.400;2023-11-21T00:25:35;32.60;;;16.27;;
21492;SDS011;10908;50.690;4.400;2023-11-21T00:28:01;32.22;;;16.48;;
21492;SDS011;10908;50.690;4.400;2023-11-21T00:30:27;29.25;;;15.43;;
21492;SDS011;10908;50.690;4.400;2023-11-21T00:32:54;33.63;;;16.10;;
21492;SDS011;10908;50.690;4.400;2023-11-21T00:35:19;30.95;;;15.30;;
21492;SDS011;10908;50.690;4.400;2023-11-21T00:37:45;36.28;;;16.05;;
21492;SDS011;10908;50.690;4.400;2023-11-21T00:40:11;36.58;;;16.35;;
21492;SDS011;10908;50.690;4.400;2023-11-21T00:42:37;32.53;;;15.65;;
21492;SDS011;10908;50.690;4.400;2023-11-21T00:45:03;36.95;;;16.30;;
21492;SDS011;10908;50.690;4.400;2023-11-21T00:47:29;33.97;;;15.98;;
21492;SDS011;10908;50.690;4.400;2023-11-21T00:49:54;33.25;;;15.80;;
21492;SDS011;10908;50.690;4.400;2023-11-21T00:52:20;35.25;;;16.00;;
21492;SDS011;10908;50.690;4.400;2023-11-21T00:54:46;33.47;;;15.57;;
21492;SDS011;10908;50.690;4.400;2023-11-21T00:57:13;36.50;;;16.50;;
21492;SDS011;10908;50.690;4.400;2023-11-21T00:59:39;35.15;;;16.10;;
21492;SDS011;10908;50.690;4.400;2023-11-21T01:02:04;34.38;;;15.25;;
21492;SDS011;10908;50.690;4.400;2023-11-21T01:04:30;35.22;;;15.13;;
21492;SDS011;10908;50.690;4.400;2023-11-21T01:06:57;30.17;;;15.27;;
21492;SDS011;10908;50.690;4.400;2023-11-21T01:09:23;33.45;;;15.43;;
21492;SDS011;10908;50.690;4.400;2023-11-21T01:11:49;30.27;;;14.80;;
21492;SDS011;10908;50.690;4.400;2023-11-21T01:14:14;34.58;;;15.57;;
21492;SDS011;10908;50.690;4.400;2023-11-21T01:16:42;34.03;;;14.82;;
21492;SDS011;10908;50.690;4.400;2023-11-21T01:19:08;28.65;;;14.38;;
21492;SDS011;10908;50.690;4.400;2023-11-21T01:21:34;31.05;;;14.95;;
21492;SDS011;10908;50.690;4.400;2023-11-21T01:24:00;31.60;;;14.45;;
21492;SDS011;10908;50.690;4.400;2023-11-21T01:26:25;27.08;;;14.30;;
21492;SDS011;10908;50.690;4.400;2023-11-21T01:28:51;31.00;;;14.73;;
21492;SDS011;10908;50.690;4.400;2023-11-21T01:31:16;27.52;;;14.50;;
21492;SDS011;10908;50.690;4.400;2023-11-21T01:33:42;29.58;;;13.77;;
21492;SDS011;10908;50.690;4.400;2023-11-21T01:36:09;25.30;;;13.50;;
21492;SDS011;10908;50.690;4.400;2023-11-21T01:38:35;26.83;;;14.15;;
21492;SDS011;10908;50.690;4.400;2023-11-21T01:41:01;25.10;;;13.48;;
21492;SDS011;10908;50.690;4.400;2023-11-21T01:43:26;26.45;;;13.10;;
21492;SDS011;10908;50.690;4.400;2023-11-21T01:45:55;24.42;;;12.75;;
21492;SDS011;10908;50.690;4.400;2023-11-21T01:48:22;27.50;;;13.18;;
21492;SDS011;10908;50.690;4.400;2023-11-21T01:50:48;26.45;;;13.57;;
21492;SDS011;10908;50.690;4.400;2023-11-21T01:53:14;27.83;;;13.45;;
21492;SDS011;10908;50.690;4.400;2023-11-21T01:55:40;24.98;;;13.40;;
21492;SDS011;10908;50.690;4.400;2023-11-21T01:58:07;29.38;;;12.85;;
21492;SDS011;10908;50.690;4.400;2023-11-21T02:00:34;28.05;;;14.15;;
21492;SDS011;10908;50.690;4.400;2023-11-21T02:03:00;28.50;;;13.02;;
21492;SDS011;10908;50.690;4.400;2023-11-21T02:05:26;31.45;;;15.10;;
21492;SDS011;10908;50.690;4.400;2023-11-21T02:07:52;28.63;;;14.40;;
21492;SDS011;10908;50.690;4.400;2023-11-21T02:10:17;28.27;;;13.75;;
21492;SDS011;10908;50.690;4.400;2023-11-21T02:12:47;26.77;;;13.10;;
21492;SDS011;10908;50.690;4.400;2023-11-21T02:15:15;28.83;;;14.05;;
21492;SDS011;10908;50.690;4.400;2023-11-21T02:17:48;30.13;;;14.35;;
21492;SDS011;10908;50.690;4.400;2023-11-21T02:20:16;26.48;;;14.05;;
21492;SDS011;10908;50.690;4.400;2023-11-21T02:22:43;29.52;;;14.52;;
21492;SDS011;10908;50.690;4.400;2023-11-21T02:25:13;27.42;;;14.02;;
21492;SDS011;10908;50.690;4.400;2023-11-21T02:27:39;29.73;;;13.95;;
21492;SDS011;10908;50.690;4.400;2023-11-21T02:30:05;31.40;;;14.68;;
21492;SDS011;10908;50.690;4.400;2023-11-21T02:32:32;29.88;;;13.50;;
21492;SDS011;10908;50.690;4.400;2023-11-21T02:34:59;29.30;;;14.57;;
21492;SDS011;10908;50.690;4.400;2023-11-21T02:37:28;28.90;;;14.43;;
21492;SDS011;10908;50.690;4.400;2023-11-21T02:39:53;30.60;;;14.60;;
21492;SDS011;10908;50.690;4.400;2023-11-21T02:42:19;27.83;;;13.98;;
21492;SDS011;10908;50.690;4.400;2023-11-21T02:44:44;28.50;;;14.45;;
21492;SDS011;10908;50.690;4.400;2023-11-21T02:47:10;29.10;;;14.65;;
21492;SDS011;10908;50.690;4.400;2023-11-21T02:49:36;29.60;;;14.75;;
21492;SDS011;10908;50.690;4.400;2023-11-21T02:52:01;27.65;;;13.52;;
21492;SDS011;10908;50.690;4.400;2023-11-21T02:54:28;28.55;;;13.88;;
21492;SDS011;10908;50.690;4.400;2023-11-21T02:56:54;25.75;;;13.65;;
21492;SDS011;10908;50.690;4.400;2023-11-21T02:59:19;33.22;;;13.77;;
21492;SDS011;10908;50.690;4.400;2023-11-21T03:01:45;31.83;;;15.02;;
21492;SDS011;10908;50.690;4.400;2023-11-21T03:04:11;28.02;;;14.65;;
21492;SDS011;10908;50.690;4.400;2023-11-21T03:06:42;30.60;;;15.18;;
21492;SDS011;10908;50.690;4.400;2023-11-21T03:09:09;29.85;;;14.88;;
21492;SDS011;10908;50.690;4.400;2023-11-21T03:11:34;33.00;;;15.25;;
21492;SDS011;10908;50.690;4.400;2023-11-21T03:14:00;30.58;;;15.60;;
21492;SDS011;10908;50.690;4.400;2023-11-21T03:16:26;34.97;;;16.08;;
21492;SDS011;10908;50.690;4.400;2023-11-21T03:18:51;32.33;;;15.55;;
21492;SDS011;10908;50.690;4.400;2023-11-21T03:21:17;32.50;;;16.15;;
21492;SDS011;10908;50.690;4.400;2023-11-21T03:23:43;30.08;;;15.02;;
21492;SDS011;10908;50.690;4.400;2023-11-21T03:26:11;27.58;;;14.25;;
21492;SDS011;10908;50.690;4.400;2023-11-21T03:28:37;28.73;;;14.95;;
21492;SDS011;10908;50.690;4.400;2023-11-21T03:31:03;28.00;;;14.07;;
21492;SDS011;10908;50.690;4.400;2023-11-21T03:33:29;31.63;;;14.63;;
21492;SDS011;10908;50.690;4.400;2023-11-21T03:35:55;28.60;;;14.20;;
21492;SDS011;10908;50.690;4.400;2023-11-21T03:38:20;28.77;;;14.43;;
21492;SDS011;10908;50.690;4.400;2023-11-21T03:40:46;28.45;;;14.20;;
21492;SDS011;10908;50.690;4.400;2023-11-21T03:43:12;28.60;;;13.88;;
21492;SDS011;10908;50.690;4.400;2023-11-21T03:45:38;29.02;;;14.77;;
21492;SDS011;10908;50.690;4.400;2023-11-21T03:48:05;31.73;;;14.80;;
21492;SDS011;10908;50.690;4.400;2023-11-21T03:50:31;27.85;;;14.60;;
21492;SDS011;10908;50.690;4.400;2023-11-21T03:52:57;31.27;;;15.68;;
21492;SDS011;10908;50.690;4.400;2023-11-21T03:55:23;32.65;;;15.80;;
21492;SDS011;10908;50.690;4.400;2023-11-21T03:57:50;29.90;;;15.27;;
21492;SDS011;10908;50.690;4.400;2023-11-21T04:00:16;28.58;;;14.45;;
21492;SDS011;10908;50.690;4.400;2023-11-21T04:02:42;30.58;;;14.85;;
21492;SDS011;10908;50.690;4.400;2023-11-21T04:05:08;27.75;;;14.50;;
21492;SDS011;10908;50.690;4.400;2023-11-21T04:07:34;29.67;;;14.68;;
21492;SDS011;10908;50.690;4.400;2023-11-21T04:10:02;27.48;;;14.27;;
21492;SDS011;10908;50.690;4.400;2023-11-21T04:12:28;29.92;;;14.23;;
21492;SDS011;10908;50.690;4.400;2023-11-21T04:14:53;29.77;;;14.13;;
21492;SDS011;10908;50.690;4.400;2023-11-21T04:17:19;27.27;;;14.23;;
21492;SDS011;10908;50.690;4.400;2023-11-21T04:19:45;28.80;;;14.73;;
21492;SDS011;10908;50.690;4.400;2023-11-21T04:22:11;29.77;;;14.75;;
21492;SDS011;10908;50.690;4.400;2023-11-21T04:24:37;24.42;;;13.55;;
21492;SDS011;10908;50.690;4.400;2023-11-21T04:27:02;27.63;;;13.32;;
21492;SDS011;10908;50.690;4.400;2023-11-21T04:29:28;28.02;;;13.85;;
21492;SDS011;10908;50.690;4.400;2023-11-21T04:31:54;26.92;;;13.98;;
21492;SDS011;10908;50.690;4.400;2023-11-21T04:34:20;28.70;;;14.57;;
21492;SDS011;10908;50.690;4.400;2023-11-21T04:36:45;33.38;;;14.93;;
21492;SDS011;10908;50.690;4.400;2023-11-21T04:39:11;28.10;;;14.90;;
21492;SDS011;10908;50.690;4.400;2023-11-21T04:41:37;30.45;;;15.00;;
21492;SDS011;10908;50.690;4.400;2023-11-21T04:44:04;32.53;;;15.05;;
21492;SDS011;10908;50.690;4.400;2023-11-21T04:46:30;31.92;;;14.80;;
21492;SDS011;10908;50.690;4.400;2023-11-21T04:48:57;26.75;;;15.23;;
21492;SDS011;10908;50.690;4.400;2023-11-21T04:51:23;32.33;;;16.80;;
21492;SDS011;10908;50.690;4.400;2023-11-21T04:53:48;27.27;;;15.07;;
21492;SDS011;10908;50.690;4.400;2023-11-21T04:56:14;29.25;;;15.27;;
21492;SDS011;10908;50.690;4.400;2023-11-21T04:58:41;28.35;;;15.60;;
21492;SDS011;10908;50.690;4.400;2023-11-21T05:01:07;26.05;;;14.75;;
21492;SDS011;10908;50.690;4.400;2023-11-21T05:03:33;28.38;;;15.65;;
21492;SDS011;10908;50.690;4.400;2023-11-21T05:05:59;29.70;;;15.90;;
21492;SDS011;10908;50.690;4.400;2023-11-21T05:08:25;31.73;;;15.77;;
21492;SDS011;10908;50.690;4.400;2023-11-21T05:10:51;31.10;;;15.88;;
21492;SDS011;10908;50.690;4.400;2023-11-21T05:13:18;32.10;;;16.13;;
21492;SDS011;10908;50.690;4.400;2023-11-21T05:15:45;33.15;;;16.42;;
21492;SDS011;10908;50.690;4.400;2023-11-21T05:18:10;32.78;;;17.33;;
21492;SDS011;10908;50.690;4.400;2023-11-21T05:20:38;29.55;;;16.15;;
21492;SDS011;10908;50.690;4.400;2023-11-21T05:23:05;31.30;;;16.90;;
21492;SDS011;10908;50.690;4.400;2023-11-21T05:25:31;28.30;;;16.48;;
21492;SDS011;10908;50.690;4.400;2023-11-21T05:27:57;33.22;;;16.83;;
21492;SDS011;10908;50.690;4.400;2023-11-21T05:30:26;33.13;;;16.73;;
21492;SDS011;10908;50.690;4.400;2023-11-21T05:32:51;29.42;;;16.05;;
21492;SDS011;10908;50.690;4.400;2023-11-21T05:35:18;33.70;;;17.60;;
21492;SDS011;10908;50.690;4.400;2023-11-21T05:37:44;30.20;;;16.15;;
21492;SDS011;10908;50.690;4.400;2023-11-21T05:40:11;27.63;;;15.82;;
21492;SDS011;10908;50.690;4.400;2023-11-21T05:42:38;32.80;;;16.90;;
21492;SDS011;10908;50.690;4.400;2023-11-21T05:45:05;29.52;;;15.80;;
21492;SDS011;10908;50.690;4.400;2023-11-21T05:47:36;31.05;;;16.45;;
21492;SDS011;10908;50.690;4.400;2023-11-21T05:50:03;26.85;;;14.98;;
21492;SDS011;10908;50.690;4.400;2023-11-21T05:52:30;28.42;;;16.00;;
21492;SDS011;10908;50.690;4.400;2023-11-21T05:54:57;29.77;;;15.68;;
21492;SDS011;10908;50.690;4.400;2023-11-21T05:57:23;30.55;;;15.75;;
21492;SDS011;10908;50.690;4.400;2023-11-21T05:59:48;27.83;;;15.52;;
21492;SDS011;10908;50.690;4.400;2023-11-21T06:02:14;34.17;;;15.80;;
21492;SDS011;10908;50.690;4.400;2023-11-21T06:04:40;31.45;;;15.88;;
21492;SDS011;10908;50.690;4.400;2023-11-21T06:07:06;33.00;;;16.35;;
21492;SDS011;10908;50.690;4.400;2023-11-21T06:09:32;32.58;;;15.82;;
21492;SDS011;10908;50.690;4.400;2023-11-21T06:11:57;32.15;;;16.83;;
21492;SDS011;10908;50.690;4.400;2023-11-21T06:14:23;32.10;;;15.93;;
21492;SDS011;10908;50.690;4.400;2023-11-21T06:16:49;31.23;;;16.85;;
21492;SDS011;10908;50.690;4.400;2023-11-21T06:19:16;31.17;;;16.55;;
21492;SDS011;10908;50.690;4.400;2023-11-21T06:21:45;29.42;;;16.48;;
21492;SDS011;10908;50.690;4.400;2023-11-21T06:24:11;29.85;;;15.63;;
21492;SDS011;10908;50.690;4.400;2023-11-21T06:26:37;26.58;;;15.82;;
21492;SDS011;10908;50.690;4.400;2023-11-21T06:29:03;35.83;;;17.05;;
21492;SDS011;10908;50.690;4.400;2023-11-21T06:31:29;30.70;;;16.60;;
21492;SDS011;10908;50.690;4.400;2023-11-21T06:33:55;32.13;;;17.30;;
21492;SDS011;10908;50.690;4.400;2023-11-21T06:36:20;34.30;;;17.88;;
21492;SDS011;10908;50.690;4.400;2023-11-21T06:38:46;37.25;;;17.60;;
21492;SDS011;10908;50.690;4.400;2023-11-21T06:41:12;36.10;;;18.30;;
21492;SDS011;10908;50.690;4.400;2023-11-21T06:43:40;34.90;;;18.48;;
21492;SDS011;10908;50.690;4.400;2023-11-21T06:46:06;37.88;;;18.85;;
21492;SDS011;10908;50.690;4.400;2023-11-21T06:48:32;37.03;;;18.48;;
21492;SDS011;10908;50.690;4.400;2023-11-21T06:50:57;35.95;;;18.65;;
21492;SDS011;10908;50.690;4.400;2023-11-21T06:53:23;37.22;;;18.60;;
21492;SDS011;10908;50.690;4.400;2023-11-21T06:55:49;38.80;;;18.60;;
21492;SDS011;10908;50.690;4.400;2023-11-21T06:58:15;36.88;;;17.92;;
21492;SDS011;10908;50.690;4.400;2023-11-21T07:00:40;33.03;;;16.80;;
21492;SDS011;10908;50.690;4.400;2023-11-21T07:03:11;35.20;;;17.83;;
21492;SDS011;10908;50.690;4.400;2023-11-21T07:05:37;34.58;;;17.55;;
21492;SDS011;10908;50.690;4.400;2023-11-21T07:08:02;38.22;;;18.63;;
21492;SDS011;10908;50.690;4.400;2023-11-21T07:10:29;37.78;;;18.70;;
21492;SDS011;10908;50.690;4.400;2023-11-21T07:12:55;31.20;;;16.85;;
21492;SDS011;10908;50.690;4.400;2023-11-21T07:15:22;35.40;;;16.17;;
21492;SDS011;10908;50.690;4.400;2023-11-21T07:17:47;34.63;;;17.05;;
21492;SDS011;10908;50.690;4.400;2023-11-21T07:20:13;40.35;;;17.30;;
21492;SDS011;10908;50.690;4.400;2023-11-21T07:22:42;36.45;;;17.60;;
21492;SDS011;10908;50.690;4.400;2023-11-21T07:25:07;36.03;;;17.33;;
21492;SDS011;10908;50.690;4.400;2023-11-21T07:27:34;40.47;;;17.58;;
21492;SDS011;10908;50.690;4.400;2023-11-21T07:30:01;35.95;;;17.38;;
21492;SDS011;10908;50.690;4.400;2023-11-21T07:32:31;36.05;;;16.83;;
21492;SDS011;10908;50.690;4.400;2023-11-21T07:34:56;42.45;;;18.45;;
21492;SDS011;10908;50.690;4.400;2023-11-21T07:37:24;40.17;;;17.58;;
21492;SDS011;10908;50.690;4.400;2023-11-21T07:39:51;41.60;;;16.88;;
21492;SDS011;10908;50.690;4.400;2023-11-21T07:42:21;37.25;;;17.20;;
21492;SDS011;10908;50.690;4.400;2023-11-21T07:44:49;37.42;;;17.35;;
21492;SDS011;10908;50.690;4.400;2023-11-21T07:47:15;36.17;;;17.00;;
21492;SDS011;10908;50.690;4.400;2023-11-21T07:49:41;35.83;;;16.67;;
21492;SDS011;10908;50.690;4.400;2023-11-21T07:52:08;40.80;;;17.23;;
21492;SDS011;10908;50.690;4.400;2023-11-21T07:54:34;39.47;;;17.30;;
21492;SDS011;10908;50.690;4.400;2023-11-21T07:57:01;37.38;;;18.63;;
21492;SDS011;10908;50.690;4.400;2023-11-21T07:59:29;39.28;;;18.40;;
21492;SDS011;10908;50.690;4.400;2023-11-21T08:01:54;46.80;;;18.73;;
21492;SDS011;10908;50.690;4.400;2023-11-21T08:04:20;36.75;;;18.92;;
21492;SDS011;10908;50.690;4.400;2023-11-21T08:06:46;40.53;;;18.80;;
21492;SDS011;10908;50.690;4.400;2023-11-21T08:09:11;40.35;;;18.45;;
21492;SDS011;10908;50.690;4.400;2023-11-21T08:11:37;40.05;;;18.50;;
21492;SDS011;10908;50.690;4.400;2023-11-21T08:14:04;37.72;;;17.63;;
21492;SDS011;10908;50.690;4.400;2023-11-21T08:16:30;35.00;;;18.08;;
21492;SDS011;10908;50.690;4.400;2023-11-21T08:18:56;39.70;;;17.60;;
21492;SDS011;10908;50.690;4.400;2023-11-21T08:21:21;44.28;;;19.15;;
21492;SDS011;10908;50.690;4.400;2023-11-21T08:23:50;38.88;;;18.38;;
21492;SDS011;10908;50.690;4.400;2023-11-21T08:26:20;43.83;;;19.30;;
21492;SDS011;10908;50.690;4.400;2023-11-21T08:28:49;39.15;;;18.27;;
21492;SDS011;10908;50.690;4.400;2023-11-21T08:31:14;43.40;;;18.38;;
21492;SDS011;10908;50.690;4.400;2023-11-21T08:33:40;41.70;;;18.60;;
21492;SDS011;10908;50.690;4.400;2023-11-21T08:36:07;39.30;;;17.27;;
21492;SDS011;10908;50.690;4.400;2023-11-21T08:38:33;39.28;;;18.42;;
21492;SDS011;10908;50.690;4.400;2023-11-21T08:41:02;42.97;;;20.23;;
21492;SDS011;10908;50.690;4.400;2023-11-21T08:43:36;46.28;;;20.52;;
21492;SDS011;10908;50.690;4.400;2023-11-21T08:46:05;41.97;;;19.65;;
21492;SDS011;10908;50.690;4.400;2023-11-21T08:48:31;42.05;;;19.95;;
21492;SDS011;10908;50.690;4.400;2023-11-21T08:50:56;46.25;;;20.55;;
21492;SDS011;10908;50.690;4.400;2023-11-21T08:53:22;43.20;;;19.83;;
21492;SDS011;10908;50.690;4.400;2023-11-21T08:55:48;61.28;;;20.40;;
21492;SDS011;10908;50.690;4.400;2023-11-21T08:58:15;43.20;;;19.38;;
21492;SDS011;10908;50.690;4.400;2023-11-21T09:00:40;41.92;;;18.70;;
21492;SDS011;10908;50.690;4.400;2023-11-21T09:03:06;42.53;;;18.92;;
21492;SDS011;10908;50.690;4.400;2023-11-21T09:05:34;45.20;;;19.25;;
21492;SDS011;10908;50.690;4.400;2023-11-21T09:08:03;44.28;;;18.75;;
21492;SDS011;10908;50.690;4.400;2023-11-21T09:10:28;43.13;;;19.15;;
21492;SDS011;10908;50.690;4.400;2023-11-21T09:12:54;39.03;;;18.77;;
21492;SDS011;10908;50.690;4.400;2023-11-21T09:15:20;40.78;;;17.95;;
21492;SDS011;10908;50.690;4.400;2023-11-21T09:17:45;42.45;;;18.83;;
21492;SDS011;10908;50.690;4.400;2023-11-21T09:20:11;44.67;;;18.35;;
21492;SDS011;10908;50.690;4.400;2023-11-21T09:22:37;42.17;;;19.15;;
21492;SDS011;10908;50.690;4.400;2023-11-21T09:25:03;43.25;;;18.98;;
21492;SDS011;10908;50.690;4.400;2023-11-21T09:27:30;46.08;;;19.10;;
21492;SDS011;10908;50.690;4.400;2023-11-21T09:29:56;49.28;;;20.25;;
21492;SDS011;10908;50.690;4.400;2023-11-21T09:32:23;41.47;;;19.35;;
21492;SDS011;10908;50.690;4.400;2023-11-21T09:34:49;41.15;;;19.73;;
21492;SDS011;10908;50.690;4.400;2023-11-21T09:37:15;44.97;;;18.85;;
21492;SDS011;10908;50.690;4.400;2023-11-21T09:39:41;39.75;;;17.95;;
21492;SDS011;10908;50.690;4.400;2023-11-21T09:44:36;39.70;;;16.42;;
21492;SDS011;10908;50.690;4.400;2023-11-21T09:47:05;39.03;;;16.75;;
21492;SDS011;10908;50.690;4.400;2023-11-21T09:49:35;39.60;;;17.08;;
21492;SDS011;10908;50.690;4.400;2023-11-21T09:52:02;44.97;;;16.50;;
21492;SDS011;10908;50.690;4.400;2023-11-21T09:54:30;40.97;;;17.10;;
21492;SDS011;10908;50.690;4.400;2023-11-21T09:56:57;41.50;;;17.85;;
21492;SDS011;10908;50.690;4.400;2023-11-21T09:59:24;41.05;;;16.45;;
21492;SDS011;10908;50.690;4.400;2023-11-21T10:01:56;40.35;;;16.00;;
21492;SDS011;10908;50.690;4.400;2023-11-21T10:04:23;45.70;;;16.23;;
21492;SDS011;10908;50.690;4.400;2023-11-21T10:06:49;40.13;;;15.80;;
21492;SDS011;10908;50.690;4.400;2023-11-21T10:09:16;36.40;;;14.60;;
21492;SDS011;10908;50.690;4.400;2023-11-21T10:11:45;34.50;;;15.13;;
21492;SDS011;10908;50.690;4.400;2023-11-21T10:14:11;38.60;;;15.20;;
21492;SDS011;10908;50.690;4.400;2023-11-21T10:16:38;34.40;;;14.93;;
21492;SDS011;10908;50.690;4.400;2023-11-21T10:19:05;36.33;;;15.25;;
21492;SDS011;10908;50.690;4.400;2023-11-21T10:21:34;39.88;;;15.07;;
21492;SDS011;10908;50.690;4.400;2023-11-21T10:24:00;41.45;;;16.77;;
21492;SDS011;10908;50.690;4.400;2023-11-21T10:26:26;39.00;;;16.08;;
21492;SDS011;10908;50.690;4.400;2023-11-21T10:29:00;36.05;;;15.75;;
21492;SDS011;10908;50.690;4.400;2023-11-21T10:31:28;35.42;;;15.27;;
21492;SDS011;10908;50.690;4.400;2023-11-21T10:34:16;39.92;;;15.65;;
21492;SDS011;10908;50.690;4.400;2023-11-21T10:36:45;36.30;;;14.68;;
21492;SDS011;10908;50.690;4.400;2023-11-21T10:39:18;36.28;;;13.98;;
21492;SDS011;10908;50.690;4.400;2023-11-21T10:41:45;31.77;;;14.13;;
21492;SDS011;10908;50.690;4.400;2023-11-21T10:44:13;33.97;;;14.43;;
21492;SDS011;10908;50.690;4.400;2023-11-21T10:46:45;34.17;;;15.88;;
21492;SDS011;10908;50.690;4.400;2023-11-21T10:49:20;37.00;;;15.52;;
21492;SDS011;10908;50.690;4.400;2023-11-21T10:51:48;37.25;;;16.27;;
21492;SDS011;10908;50.690;4.400;2023-11-21T10:54:19;34.90;;;15.57;;
21492;SDS011;10908;50.690;4.400;2023-11-21T10:56:46;36.30;;;15.45;;
21492;SDS011;10908;50.690;4.400;2023-11-21T10:59:18;31.65;;;15.63;;
21492;SDS011;10908;50.690;4.400;2023-11-21T11:01:45;36.33;;;16.33;;
21492;SDS011;10908;50.690;4.400;2023-11-21T11:04:12;37.08;;;17.88;;
21492;SDS011;10908;50.690;4.400;2023-11-21T11:07:24;34.28;;;16.75;;
21492;SDS011;10908;50.690;4.400;2023-11-21T11:09:34;38.03;;;18.20;;
21492;SDS011;10908;50.690;4.400;2023-11-21T11:12:01;31.63;;;17.20;;
21492;SDS011;10908;50.690;4.400;2023-11-21T11:14:29;31.40;;;15.35;;
21492;SDS011;10908;50.690;4.400;2023-11-21T11:16:57;31.02;;;14.82;;
21492;SDS011;10908;50.690;4.400;2023-11-21T11:19:24;33.67;;;14.20;;
21492;SDS011;10908;50.690;4.400;2023-11-21T11:22:12;28.55;;;14.32;;
21492;SDS011;10908;50.690;4.400;2023-11-21T11:38:32;26.25;;;12.80;;
21492;SDS011;10908;50.690;4.400;2023-11-21T11:41:00;23.13;;;12.93;;
21492;SDS011;10908;50.690;4.400;2023-11-21T11:43:29;26.10;;;13.95;;
21492;SDS011;10908;50.690;4.400;2023-11-21T11:45:56;28.13;;;13.65;;
21492;SDS011;10908;50.690;4.400;2023-11-21T11:48:24;26.23;;;14.25;;
21492;SDS011;10908;50.690;4.400;2023-11-21T11:53:43;33.63;;;17.60;;
21492;SDS011;10908;50.690;4.400;2023-11-21T11:59:04;31.73;;;17.73;;
21492;SDS011;10908;50.690;4.400;2023-11-21T12:01:32;30.77;;;16.95;;
21492;SDS011;10908;50.690;4.400;2023-11-21T12:06:44;33.35;;;17.20;;
21492;SDS011;10908;50.690;4.400;2023-11-21T12:09:28;29.60;;;16.30;;
21492;SDS011;10908;50.690;4.400;2023-11-21T12:11:56;33.17;;;16.23;;
21492;SDS011;10908;50.690;4.400;2023-11-21T12:14:22;29.17;;;16.27;;
21492;SDS011;10908;50.690;4.400;2023-11-21T12:16:48;34.90;;;17.35;;
21492;SDS011;10908;50.690;4.400;2023-11-21T12:19:14;31.23;;;16.58;;
21492;SDS011;10908;50.690;4.400;2023-11-21T12:21:40;34.45;;;17.15;;
21492;SDS011;10908;50.690;4.400;2023-11-21T12:24:13;36.42;;;18.95;;
21492;SDS011;10908;50.690;4.400;2023-11-21T12:26:39;35.08;;;18.63;;
21492;SDS011;10908;50.690;4.400;2023-11-21T12:29:05;34.70;;;18.98;;
21492;SDS011;10908;50.690;4.400;2023-11-21T12:31:32;37.72;;;18.95;;
21492;SDS011;10908;50.690;4.400;2023-11-21T12:33:59;34.10;;;19.23;;
21492;SDS011;10908;50.690;4.400;2023-11-21T12:36:26;37.95;;;20.08;;
21492;SDS011;10908;50.690;4.400;2023-11-21T12:38:54;38.22;;;20.13;;
21492;SDS011;10908;50.690;4.400;2023-11-21T12:41:19;36.40;;;19.35;;
21492;SDS011;10908;50.690;4.400;2023-11-21T12:43:46;37.25;;;19.80;;
21492;SDS011;10908;50.690;4.400;2023-11-21T12:46:12;34.22;;;17.88;;
21492;SDS011;10908;50.690;4.400;2023-11-21T12:48:39;26.38;;;14.55;;
21492;SDS011;10908;50.690;4.400;2023-11-21T12:51:09;22.63;;;13.30;;
21492;SDS011;10908;50.690;4.400;2023-11-21T12:53:43;24.92;;;14.05;;
21492;SDS011;10908;50.690;4.400;2023-11-21T12:58:36;25.38;;;14.30;;
21492;SDS011;10908;50.690;4.400;2023-11-21T13:01:04;25.92;;;14.43;;
21492;SDS011;10908;50.690;4.400;2023-11-21T13:03:31;25.27;;;13.07;;
21492;SDS011;10908;50.690;4.400;2023-11-21T13:05:57;21.17;;;12.20;;
21492;SDS011;10908;50.690;4.400;2023-11-21T13:08:24;21.15;;;12.52;;
21492;SDS011;10908;50.690;4.400;2023-11-21T13:10:54;22.55;;;13.35;;
21492;SDS011;10908;50.690;4.400;2023-11-21T13:13:21;24.60;;;14.10;;
21492;SDS011;10908;50.690;4.400;2023-11-21T13:18:20;21.02;;;12.63;;
21492;SDS011;10908;50.690;4.400;2023-11-21T13:20:46;23.85;;;14.18;;
21492;SDS011;10908;50.690;4.400;2023-11-21T13:23:13;21.75;;;13.13;;
21492;SDS011;10908;50.690;4.400;2023-11-21T13:25:41;20.40;;;13.43;;
21492;SDS011;10908;50.690;4.400;2023-11-21T13:28:07;20.45;;;12.77;;
21492;SDS011;10908;50.690;4.400;2023-11-21T13:30:37;17.60;;;11.82;;
21492;SDS011;10908;50.690;4.400;2023-11-21T13:33:05;22.75;;;11.18;;
21492;SDS011;10908;50.690;4.400;2023-11-21T13:35:32;17.42;;;10.48;;
21492;SDS011;10908;50.690;4.400;2023-11-21T13:38:07;18.65;;;11.77;;
21492;SDS011;10908;50.690;4.400;2023-11-21T13:40:34;19.88;;;11.35;;
21492;SDS011;10908;50.690;4.400;2023-11-21T13:43:13;15.82;;;10.48;;
21492;SDS011;10908;50.690;4.400;2023-11-21T13:45:40;15.65;;;10.15;;
21492;SDS011;10908;50.690;4.400;2023-11-21T13:48:07;16.55;;;9.63;;
21492;SDS011;10908;50.690;4.400;2023-11-21T13:50:45;15.15;;;9.48;;
21492;SDS011;10908;50.690;4.400;2023-11-21T13:53:20;17.10;;;9.45;;
21492;SDS011;10908;50.690;4.400;2023-11-21T13:55:50;15.07;;;9.48;;
21492;SDS011;10908;50.690;4.400;2023-11-21T13:58:19;16.60;;;9.32;;
21492;SDS011;10908;50.690;4.400;2023-11-21T14:00:51;14.63;;;9.25;;
21492;SDS011;10908;50.690;4.400;2023-11-21T14:03:22;14.85;;;9.45;;
21492;SDS011;10908;50.690;4.400;2023-11-21T14:05:57;14.90;;;8.90;;
21492;SDS011;10908;50.690;4.400;2023-11-21T14:08:25;13.60;;;8.27;;
21492;SDS011;10908;50.690;4.400;2023-11-21T14:10:54;15.63;;;8.45;;
21492;SDS011;10908;50.690;4.400;2023-11-21T14:13:24;12.35;;;8.63;;
21492;SDS011;10908;50.690;4.400;2023-11-21T14:15:51;12.75;;;8.30;;
21492;SDS011;10908;50.690;4.400;2023-11-21T14:18:23;13.25;;;8.50;;
21492;SDS011;10908;50.690;4.400;2023-11-21T14:20:55;14.82;;;7.78;;
21492;SDS011;10908;50.690;4.400;2023-11-21T14:23:21;13.77;;;7.80;;
21492;SDS011;10908;50.690;4.400;2023-11-21T14:25:48;13.82;;;7.90;;
21492;SDS011;10908;50.690;4.400;2023-11-21T14:28:17;11.20;;;6.90;;
21492;SDS011;10908;50.690;4.400;2023-11-21T14:30:44;14.05;;;7.82;;
21492;SDS011;10908;50.690;4.400;2023-11-21T14:33:11;13.10;;;7.63;;
21492;SDS011;10908;50.690;4.400;2023-11-21T14:35:37;10.07;;;6.43;;
21492;SDS011;10908;50.690;4.400;2023-11-21T14:38:02;9.55;;;5.95;;
21492;SDS011;10908;50.690;4.400;2023-11-21T14:40:32;11.32;;;4.85;;
21492;SDS011;10908;50.690;4.400;2023-11-21T14:43:00;9.18;;;5.13;;
21492;SDS011;10908;50.690;4.400;2023-11-21T14:45:27;11.35;;;5.00;;
21492;SDS011;10908;50.690;4.400;2023-11-21T14:47:54;9.50;;;5.38;;
21492;SDS011;10908;50.690;4.400;2023-11-21T14:50:40;9.65;;;5.55;;
21492;SDS011;10908;50.690;4.400;2023-11-21T14:53:34;11.30;;;5.30;;